METAR Data
IDs: Format: Raw Decoded Include TAF

Data at: 1411 UTC 12 Dec 2018

PABE 121353Z 21009KT 10SM CLR M14/M16 A2920 RMK AO2 SLP891 T11441156
PABE 121253Z 23009KT 10SM CLR M14/M16 A2920 RMK AO2 SLP891 I1000 T11391156
PABE 121153Z 23011KT 10SM CLR M15/M16 A2920 RMK AO2 SLP892 70002 I1000 I6000 T11501156 11094 21150 53010
PABE 121053Z 24009KT 10SM CLR M14/M14 A2919 RMK SLP888 I1000 T11391144 VIA AUTODIAL
PABE 120953Z 24009KT 10SM CLR M13/M14 A2918 RMK AO2 SLP884 T11331139
PABE 120853Z 24009KT 10SM CLR M13/M14 A2917 RMK AO2 SLP881 T11281139 410671128 52014
PABE 120753Z 24010KT 10SM CLR M12/M13 A2916 RMK AO2 SLP877 T11171133
PABE 120653Z 25012KT 10SM CLR M11/M13 A2915 RMK AO2 SLP872 T11111128
PABE 120553Z 25014KT 10SM CLR M09/M12 A2913 RMK SLP868 60000 T10941117 11078 21111 53007 VIA AUTODIAL
PABE 120453Z 25015KT 10SM SCT065 BKN090 M08/M11 A2912 RMK AO2 SNE05 SLP864 P0000 T10831106
PABE 120353Z 24014KT 3SM -SN BR OVC030 M08/M09 A2911 RMK AO2 SNB07 SLP861 P0000 T10781094
PABE 120315Z 23015KT 2 1/2SM -SN BR BKN028 OVC047 M09/M11 A2911 RMK AO2 SNB07 P0000 T10891106
PABE 120253Z 23016KT 10SM SCT037 OVC048 M09/M12 A2911 RMK AO2 SLP859 T10891117 56003
PABE 120153Z 23014KT 10SM BKN065 M10/M13 A2911 RMK AO2 SLP861 T11001128
PABE 120053Z 23011KT 10SM CLR M11/M13 A2911 RMK AO2 SLP861 T11061128
PABE 112353Z 24012KT 10SM CLR M11/M13 A2912 RMK SLP864 T11061128 11089 21117 51004 VIA AUTODIAL
PABE 112253Z 24011KT 10SM CLR M11/M13 A2912 RMK AO2 SLP864 T11061128
PABE 112153Z 24012KT 10SM CLR M11/M13 A2911 RMK AO2 SLP861 T11061128
PABE 112053Z 24012KT 10SM SCT080 BKN150 M12/M13 A2911 RMK AO2 SLP860 T11171128 51022
PABE 111953Z 25011KT 10SM SCT060 BKN120 M10/M12 A2910 RMK AO2 SLP856 T11001122
PABE 111853Z 25013KT 10SM CLR M10/M12 A2907 RMK AO2 SLP846 T11001122
PABE 111753Z 25015KT 9SM CLR M09/M12 A2905 RMK AO2 SLP838 60002 T10891117 11067 21089 53021
PABE 111653Z 28018G29KT 10SM OVC050 M07/M09 A2902 RMK AO2 PK WND 27029/1646 SNE02 SLP830 P0000 T10671089
PABE 111553Z 27015KT 7SM -SN BKN037 OVC048 M07/M09 A2900 RMK AO2 SNB51 SLP822 P0000 T10721089
PABE 111453Z AUTO 27015KT 10SM FEW032 BKN044 OVC110 M07/M09 A2898 RMK AO2 SLP817 P0001 60002 T10721094 51027 TSNO
PABE 111353Z AUTO 27012KT 10SM OVC046 M07/M09 A2896 RMK SNE31 SLP810 P0000 T10721094 TSNO VIA AUTODIAL
PABE 111320Z AUTO 28016KT 3SM -SN BR OVC039 M07/M09 A2895 RMK AO2 P0000 T10721089 TSNO
PABE 111253Z 28015KT 2 1/2SM -SN BR OVC033 M07/M08 A2894 RMK AO2 PK WND 28028/1224 SLP801 P0001 T10721078
PABE 111217Z 28018KT 2SM -SN BR OVC030 M07/M08 A2892 RMK AO2 P0000 T10721083
PABE 111153Z 28016KT 1 3/4SM -SN BR OVC024 M07/M08 A2890 RMK AO2 SLP789 P0001 60007 70023 T10721083 11072 21078 51031
PABE 111053Z 28018G24KT 1 1/2SM -SN BR OVC017 M07/M08 A2888 RMK AO2 PK WND 29027/1005 SLP781 P0003 T10721083
PABE 110953Z 29021G29KT 1SM R19R/P6000FT -SN BR VV014 M07/M08 A2884 RMK AO2 PK WND 30029/0908 SLP769 P0000 T10721083
PABE 110903Z 30022G28KT 3/4SM R19R/5000V6000FT -SN BR VV013 M07/M08 A2882 RMK AO2 PK WND 30027/0902 P0000 T10721083
PABE 110853Z 30022G30KT 1SM R19R/P6000FT -SN BR VV014 M07/M08 A2881 RMK AO2 PK WND 30030/0845 SLP757 P0002 60003 T10721083 410611089 50021
PABE 110753Z 30021G28KT 3/4SM R19R/4500V5000FT -SN BR VV011 M08/M09 A2878 RMK AO2 PK WND 30030/0727 SLP747 P0000 T10781089
PABE 110736Z 30021G30KT 3/4SM R19R/5000VP6000FT -SN BR VV014 M08/M09 A2877 RMK AO2 PK WND 30030/0727 P0000 T10781089
PABE 110653Z 31022G26KT 1 1/4SM -SN BR OVC024 M07/M08 A2875 RMK AO2 PK WND 32030/0607 SLP736 P0001 T10721083
PABE 110553Z 31019KT 1 1/4SM -SN BR OVC020 M07/M08 A2872 RMK PK WND 32027/0512 SLP727 P0001 60009 T10721083 11061 21072 53018 VIA AUTODIAL
PABE 110453Z 31018KT 1 1/4SM -SN BR OVC017 M07/M08 A2869 RMK AO2 PK WND 32027/0427 SLP718 P0002 T10671078
PABE 110353Z 32018KT 1 1/4SM -SN BR OVC019 M07/M07 A2868 RMK AO2 PK WND 31026/0306 SLP713 P0002 T10671072
PABE 110253Z 32019KT 1 1/2SM -SN BR OVC017 M07/M07 A2866 RMK AO2 SLP708 P0000 60004 T10671072 53002